Time;durP1;ratioP1;P1;durP2;ratioP2;P2;SDS_P1;SDS_P2;PMS_P1;PMS_P2;Temp;Humidity;BMP_temperature;BMP_pressure;BME280_temperature;BME280_humidity;BME280_pressure;Samples;Min_cycle;Max_cycle;Signal;HPM_P1;HPM_P2
2023/03/16 00:01:58;;;;;;;;;;;;;;;28.26;60.68;101187.09;5050934;28;69982;-41
2023/03/16 00:04:29;;;;;;;;;;;;;;;28.29;60.51;101196.66;5049238;28;67171;-41
2023/03/16 00:06:59;;;;;;;;;;;;;;;28.36;61.11;101197.56;5044207;28;70194;-42
2023/03/16 00:09:30;;;;;;;;;;;;;;;28.42;60.99;101195.94;5050395;28;67091;-41
2023/03/16 00:12:03;;;;;;;;;;;;;;;28.37;59.79;101195.69;5041634;28;69410;-40
2023/03/16 00:14:34;;;;;;;;;;;;;;;28.29;59.21;101196.66;5050765;27;65555;-40
2023/03/16 00:17:05;;;;;;;;;;;;;;;28.28;58.14;101189.63;5046937;28;70060;-41
2023/03/16 00:19:35;;;;;;;;;;;;;;;28.31;56.90;101210.81;5049857;28;65604;-41
2023/03/16 00:22:05;;;;;;;;;;;;;;;28.33;56.64;101203.31;5054453;28;70080;-39
2023/03/16 00:24:36;;;;;;;;;;;;;;;28.39;56.65;101207.97;5048950;28;65618;-39
2023/03/16 00:27:06;;;;;;;;;;;;;;;28.41;56.64;101205.06;5045939;28;69206;-39
2023/03/16 00:29:36;;;;;;;;;;;;;;;28.43;56.04;101211.97;5052764;27;66062;-39
2023/03/16 00:32:07;;;;;;;;;;;;;;;28.46;56.36;101208.88;5048701;28;69856;-39
2023/03/16 00:34:37;;;;;;;;;;;;;;;28.50;56.21;101220.94;5049658;28;66858;-40
2023/03/16 00:37:07;;;;;;;;;;;;;;;28.54;56.03;101218.69;5062878;27;69159;-49
2023/03/16 00:39:37;;;;;;;;;;;;;;;28.57;55.80;101220.16;5044563;27;66020;-38
2023/03/16 00:42:08;;;;;;;;;;;;;;;28.61;56.12;101229.50;5044132;28;69007;-40
2023/03/16 00:44:40;;;;;;;;;;;;;;;28.63;55.72;101224.75;5046772;28;65635;-40
2023/03/16 00:47:14;;;;;;;;;;;;;;;28.64;55.61;101226.41;5046187;28;69280;-41
2023/03/16 00:49:44;;;;;;;;;;;;;;;28.66;55.57;101232.47;5077796;27;66482;-42
2023/03/16 00:52:15;;;;;;;;;;;;;;;28.66;55.46;101236.00;5045320;28;69594;-40
2023/03/16 00:54:46;;;;;;;;;;;;;;;28.69;54.81;101240.16;5038157;28;65777;-42
2023/03/16 00:57:20;;;;;;;;;;;;;;;28.70;54.69;101244.56;5055291;28;70362;-41
2023/03/16 00:59:51;;;;;;;;;;;;;;;28.72;54.50;101245.16;5083143;27;66594;-40
2023/03/16 01:02:24;;;;;;;;;;;;;;;28.73;54.82;101252.25;5042472;28;69759;-41
2023/03/16 01:04:54;;;;;;;;;;;;;;;28.74;54.78;101252.03;5045620;28;65724;-40
2023/03/16 01:07:26;;;;;;;;;;;;;;;28.76;54.56;101262.66;5076881;27;70165;-42
2023/03/16 01:09:58;;;;;;;;;;;;;;;28.78;54.18;101271.41;5064344;27;65918;-40
2023/03/16 01:12:29;;;;;;;;;;;;;;;28.79;54.09;101264.97;5055197;27;69953;-42
2023/03/16 01:15:00;;;;;;;;;;;;;;;28.81;54.01;101264.78;5045533;28;65779;-41
2023/03/16 01:17:33;;;;;;;;;;;;;;;28.31;54.30;101183.81;5048158;28;70445;-41
2023/03/16 01:20:07;;;;;;;;;;;;;;;28.82;53.82;101264.56;5043762;28;66458;-41
2023/03/16 01:22:37;;;;;;;;;;;;;;;28.85;54.11;101266.03;5051226;28;70588;-40
2023/03/16 01:25:10;;;;;;;;;;;;;;;28.86;53.98;101273.97;5053030;28;66709;-40
2023/03/16 01:27:41;;;;;;;;;;;;;;;28.88;53.95;101271.88;5050184;28;70855;-40
2023/03/16 01:30:12;;;;;;;;;;;;;;;28.89;53.55;101276.25;5045468;28;66904;-40
2023/03/16 01:32:42;;;;;;;;;;;;;;;28.90;53.29;101280.63;5053686;28;69752;-40
2023/03/16 01:35:14;;;;;;;;;;;;;;;28.93;53.63;101285.63;5053755;28;66117;-42
2023/03/16 01:37:44;;;;;;;;;;;;;;;28.95;53.06;101288.13;5042988;28;69913;-40
2023/03/16 01:40:17;;;;;;;;;;;;;;;28.96;53.04;101287.91;5056391;28;67055;-42
2023/03/16 01:42:49;;;;;;;;;;;;;;;29.00;53.41;101292.94;5048642;28;70178;-41
2023/03/16 01:45:37;;;;;;;;;;;;;;;29.00;52.91;101291.06;5050668;27;66325;-40
2023/03/16 01:48:09;;;;;;;;;;;;;;;29.03;53.32;101296.13;5082771;27;69681;-43
2023/03/16 01:50:40;;;;;;;;;;;;;;;29.04;52.87;101302.34;5088728;27;65471;-41
2023/03/16 01:53:11;;;;;;;;;;;;;;;29.06;53.09;101300.25;5085958;27;70366;-41
2023/03/16 01:55:42;;;;;;;;;;;;;;;29.09;52.66;101302.59;5049973;28;66430;-40
2023/03/16 01:58:13;;;;;;;;;;;;;;;29.12;52.91;101310.28;5043845;27;69712;-42
2023/03/16 02:00:44;;;;;;;;;;;;;;;29.13;52.36;101306.56;5043368;28;65816;-41
2023/03/16 02:03:21;;;;;;;;;;;;;;;29.16;52.49;101306.16;5053356;27;69903;-43
2023/03/16 02:06:02;;;;;;;;;;;;;;;29.18;52.30;101314.91;5058502;28;66870;-42
2023/03/16 02:08:35;;;;;;;;;;;;;;;29.20;52.25;101312.84;5089244;27;71394;-42
2023/03/16 02:11:07;;;;;;;;;;;;;;;29.22;52.12;101305.34;5045055;28;66305;-42
2023/03/16 02:13:48;;;;;;;;;;;;;;;29.25;52.54;101313.06;5042601;28;70619;-40
2023/03/16 02:16:21;;;;;;;;;;;;;;;29.27;52.15;101313.69;5052826;28;66535;-41
2023/03/16 02:18:52;;;;;;;;;;;;;;;29.30;51.88;101313.28;5061290;28;70199;-40
2023/03/16 02:21:25;;;;;;;;;;;;;;;29.32;51.94;101311.25;5042703;28;65991;-42
2023/03/16 02:23:56;;;;;;;;;;;;;;;29.33;51.80;101315.59;5045965;28;69266;-41
2023/03/16 02:26:37;;;;;;;;;;;;;;;29.37;51.83;101318.75;5041961;28;66458;-41
2023/03/16 02:29:13;;;;;;;;;;;;;;;29.40;51.68;101312.94;5073594;27;69918;-41
2023/03/16 02:31:46;;;;;;;;;;;;;;;29.42;51.71;101310.03;5082453;27;66219;-41
2023/03/16 02:34:17;;;;;;;;;;;;;;;29.44;52.16;101319.59;5040099;28;69384;-41
2023/03/16 02:36:48;;;;;;;;;;;;;;;29.48;52.02;101320.06;5040567;28;65931;-41
2023/03/16 02:39:22;;;;;;;;;;;;;;;29.49;51.34;101310.91;5051272;28;70586;-40
2023/03/16 02:41:53;;;;;;;;;;;;;;;29.53;51.31;101312.16;5042086;28;66852;-41
2023/03/16 02:44:25;;;;;;;;;;;;;;;29.54;51.83;101314.69;5057604;28;70127;-39
2023/03/16 02:46:59;;;;;;;;;;;;;;;29.57;51.25;101308.03;5051313;28;65708;-41
2023/03/16 02:49:41;;;;;;;;;;;;;;;29.61;51.70;101312.00;5058848;28;69314;-40
2023/03/16 02:52:11;;;;;;;;;;;;;;;29.64;51.32;101314.31;5040347;28;66063;-43
2023/03/16 02:54:42;;;;;;;;;;;;;;;29.66;51.18;101309.56;5056995;27;70634;-43
2023/03/16 02:57:13;;;;;;;;;;;;;;;29.69;51.33;101305.63;5052130;27;65490;-42
2023/03/16 02:59:44;;;;;;;;;;;;;;;29.71;50.79;101298.97;5050437;28;69767;-41
2023/03/16 03:02:15;;;;;;;;;;;;;;;29.74;51.21;101303.16;5057205;28;66487;-41
2023/03/16 03:04:45;;;;;;;;;;;;;;;29.76;50.62;101306.50;5045153;27;69930;-40
2023/03/16 03:07:15;;;;;;;;;;;;;;;29.79;51.20;101300.66;5049561;28;66034;-44
2023/03/16 03:09:58;;;;;;;;;;;;;;;29.81;50.54;101296.72;5039805;27;69881;-42
2023/03/16 03:12:31;;;;;;;;;;;;;;;29.65;50.72;101267.34;5084751;27;66856;-40
2023/03/16 03:15:06;;;;;;;;;;;;;;;29.87;50.94;101294.25;5068437;27;69883;-40
2023/03/16 03:18:03;;;;;;;;;;;;;;;29.90;50.44;101285.72;5043145;28;66926;-40
2023/03/16 03:20:34;;;;;;;;;;;;;;;29.93;50.60;101282.63;5055118;28;70984;-40
2023/03/16 03:23:04;;;;;;;;;;;;;;;29.95;50.67;101277.81;5051033;28;66653;-42
2023/03/16 03:25:35;;;;;;;;;;;;;;;29.98;50.31;101269.31;5040897;28;69858;-40
2023/03/16 03:28:05;;;;;;;;;;;;;;;30.01;50.63;101277.00;5041798;27;66591;-40
2023/03/16 03:30:36;;;;;;;;;;;;;;;30.03;50.41;101264.09;5052547;28;69898;-42
2023/03/16 03:33:07;;;;;;;;;;;;;;;30.06;50.45;101258.28;5040020;28;67208;-40
2023/03/16 03:35:37;;;;;;;;;;;;;;;30.08;50.49;101250.78;5074155;27;68353;-40
2023/03/16 03:38:08;;;;;;;;;;;;;;;30.10;50.01;101254.13;5072347;27;66955;-40
2023/03/16 03:40:43;;;;;;;;;;;;;;;30.14;50.37;101246.44;5053292;28;68887;-42
2023/03/16 03:43:14;;;;;;;;;;;;;;;30.15;50.19;101240.81;5049547;28;66617;-40
2023/03/16 03:45:46;;;;;;;;;;;;;;;30.18;49.95;101240.41;5056251;27;69808;-41
2023/03/16 03:48:16;;;;;;;;;;;;;;;30.20;49.71;101243.75;5056081;28;65769;-40
2023/03/16 03:50:47;;;;;;;;;;;;;;;30.23;50.15;101237.94;5065660;27;69190;-40
2023/03/16 03:53:18;;;;;;;;;;;;;;;30.25;50.19;101226.91;5041998;27;66317;-41
2023/03/16 03:56:06;;;;;;;;;;;;;;;30.28;50.15;101224.63;5040818;28;71097;-41
2023/03/16 03:58:39;;;;;;;;;;;;;;;30.30;50.03;101218.16;5073731;27;65443;-41
2023/03/16 04:01:11;;;;;;;;;;;;;;;30.33;49.59;101217.75;5079780;27;70739;-41
2023/03/16 04:03:42;;;;;;;;;;;;;;;30.34;49.99;101214.00;5058051;27;66332;-41
2023/03/16 04:06:15;;;;;;;;;;;;;;;30.36;49.70;101196.50;5042442;28;70029;-40
2023/03/16 04:08:45;;;;;;;;;;;;;;;30.38;49.45;101196.31;5058564;27;66213;-41
2023/03/16 04:11:19;;;;;;;;;;;;;;;30.41;49.30;101194.00;5041641;28;69764;-40
2023/03/16 04:13:52;;;;;;;;;;;;;;;30.43;49.23;101193.81;5050366;28;66319;-45
2023/03/16 04:16:25;;;;;;;;;;;;;;;30.44;49.13;101190.03;5043898;27;71793;-40
2023/03/16 04:18:57;;;;;;;;;;;;;;;30.46;49.34;101179.84;5042013;27;66386;-40
2023/03/16 04:21:27;;;;;;;;;;;;;;;30.46;49.10;101172.56;5041805;28;70361;-41
2023/03/16 04:23:57;;;;;;;;;;;;;;;30.49;49.68;101171.31;5057598;27;66361;-41
2023/03/16 04:26:33;;;;;;;;;;;;;;;30.50;49.36;101175.66;5041394;28;68463;-40
2023/03/16 04:29:04;;;;;;;;;;;;;;;30.52;49.16;101160.06;5042497;28;66671;-41
2023/03/16 04:31:35;;;;;;;;;;;;;;;30.54;49.73;101159.84;5060494;27;70347;-40
2023/03/16 04:34:06;;;;;;;;;;;;;;;30.55;49.04;101148.78;5041849;27;66172;-40
2023/03/16 04:36:36;;;;;;;;;;;;;;;30.57;49.09;101138.59;5047729;28;69848;-41
2023/03/16 04:39:07;;;;;;;;;;;;;;;30.60;48.97;101135.47;5054808;28;67266;-40
2023/03/16 04:41:37;;;;;;;;;;;;;;;30.62;49.44;101135.22;5046651;28;70254;-41
2023/03/16 04:44:14;;;;;;;;;;;;;;;30.64;49.19;101123.16;5054250;28;66271;-42
2023/03/16 04:46:44;;;;;;;;;;;;;;;30.65;48.93;101121.28;5066048;27;70600;-39
2023/03/16 04:49:15;;;;;;;;;;;;;;;30.68;49.38;101115.44;5057652;28;66861;-41
2023/03/16 04:51:46;;;;;;;;;;;;;;;30.69;49.05;101117.94;5044189;28;70591;-41
2023/03/16 04:54:19;;;;;;;;;;;;;;;30.71;49.00;101096.88;5076838;27;66533;-41
2023/03/16 04:56:51;;;;;;;;;;;;;;;30.75;49.29;101093.75;5044068;28;70744;-40
2023/03/16 04:59:44;;;;;;;;;;;;;;;30.77;48.74;101083.53;5053949;28;65689;-42
2023/03/16 05:02:26;;;;;;;;;;;;;;;30.79;48.69;101081.47;5058916;28;70580;-43
2023/03/16 05:05:00;;;;;;;;;;;;;;;30.80;49.27;101075.00;5045836;27;66037;-40
2023/03/16 05:07:31;;;;;;;;;;;;;;;30.84;49.38;101073.53;5048340;28;70030;-39
2023/03/16 05:10:02;;;;;;;;;;;;;;;30.86;49.33;101068.72;5079056;27;66107;-39
2023/03/16 05:12:33;;;;;;;;;;;;;;;30.87;49.30;101064.97;5050551;28;70378;-40
2023/03/16 05:15:07;;;;;;;;;;;;;;;30.91;48.66;101063.50;5073616;27;66281;-39
2023/03/16 05:17:45;;;;;;;;;;;;;;;30.92;48.71;101055.19;5065982;27;70165;-40
2023/03/16 05:20:16;;;;;;;;;;;;;;;30.94;49.15;101052.22;5053162;28;67329;-40
2023/03/16 05:22:51;;;;;;;;;;;;;;;30.97;49.25;101043.66;5046724;28;69795;-40
2023/03/16 05:25:28;;;;;;;;;;;;;;;30.99;48.94;101036.16;5050930;28;66713;-41
2023/03/16 05:28:04;;;;;;;;;;;;;;;31.01;49.01;101050.34;5064939;27;70176;-40
2023/03/16 05:30:47;;;;;;;;;;;;;;;31.04;48.77;101039.06;5053895;28;66827;-40
2023/03/16 05:33:22;;;;;;;;;;;;;;;31.06;49.04;101026.09;5092977;27;70436;-40
2023/03/16 05:35:58;;;;;;;;;;;;;;;31.08;48.51;101024.00;5051369;28;66679;-41
2023/03/16 05:38:30;;;;;;;;;;;;;;;31.10;48.56;101016.50;5055541;28;69689;-41
2023/03/16 05:41:03;;;;;;;;;;;;;;;31.12;48.64;101009.00;5054588;28;66832;-42
2023/03/16 05:43:56;;;;;;;;;;;;;;;31.15;48.54;101008.56;5049750;28;69438;-40
2023/03/16 05:46:37;;;;;;;;;;;;;;;31.18;48.48;101007.28;5052946;28;66545;-40
2023/03/16 05:49:07;;;;;;;;;;;;;;;31.22;48.51;101004.97;5052595;28;70535;-40
2023/03/16 05:51:38;;;;;;;;;;;;;;;31.24;48.25;101000.97;5051162;28;66811;-40
2023/03/16 05:54:09;;;;;;;;;;;;;;;31.27;48.38;100997.00;5047620;28;70319;-39
2023/03/16 05:56:45;;;;;;;;;;;;;;;31.30;48.37;100993.84;5054313;28;66740;-41
2023/03/16 05:59:19;;;;;;;;;;;;;;;31.33;48.47;100993.41;5082034;27;69961;-39
2023/03/16 06:01:54;;;;;;;;;;;;;;;31.36;48.07;100982.16;5055579;28;67616;-40
2023/03/16 06:04:24;;;;;;;;;;;;;;;31.38;48.25;100975.47;5046752;28;69793;-40
2023/03/16 06:06:54;;;;;;;;;;;;;;;31.41;48.32;100970.66;5055403;27;66077;-40
2023/03/16 06:09:28;;;;;;;;;;;;;;;31.44;48.12;100973.75;5071819;27;70910;-40
2023/03/16 06:12:03;;;;;;;;;;;;;;;31.47;47.73;100967.03;5053842;28;65574;-40
2023/03/16 06:14:40;;;;;;;;;;;;;;;31.49;48.07;100963.06;5044843;28;70180;-40
2023/03/16 06:17:11;;;;;;;;;;;;;;;31.52;47.95;100954.47;5079331;27;66130;-40
2023/03/16 06:19:43;;;;;;;;;;;;;;;31.54;47.69;100956.97;5039763;28;70690;-41
2023/03/16 06:22:25;;;;;;;;;;;;;;;31.56;48.20;100938.59;5075934;27;65982;-42
2023/03/16 06:24:58;;;;;;;;;;;;;;;31.59;47.88;100938.13;5047810;28;70278;-40
2023/03/16 06:27:29;;;;;;;;;;;;;;;31.63;47.93;100923.09;5046204;28;66677;-41
2023/03/16 06:30:19;;;;;;;;;;;;;;;31.66;47.77;100940.81;5043139;28;69963;-40
2023/03/16 06:32:49;;;;;;;;;;;;;;;31.67;47.49;100935.13;5057815;28;66895;-40
2023/03/16 06:35:20;;;;;;;;;;;;;;;31.71;47.54;100943.66;5084852;27;70114;-40
2023/03/16 06:38:14;;;;;;;;;;;;;;;31.74;47.34;100932.38;5055806;27;66007;-39
2023/03/16 06:40:55;;;;;;;;;;;;;;;31.77;47.53;100918.34;5053414;28;70421;-40
2023/03/16 06:43:32;;;;;;;;;;;;;;;31.80;47.52;100915.19;5045177;27;66150;-39
2023/03/16 06:46:02;;;;;;;;;;;;;;;31.82;47.54;100899.53;5047429;28;69387;-42
2023/03/16 06:48:32;;;;;;;;;;;;;;;31.87;47.38;100907.78;5052422;28;66686;-39
2023/03/16 06:51:06;;;;;;;;;;;;;;;31.88;47.12;100904.03;5038549;28;69979;-41
2023/03/16 06:53:37;;;;;;;;;;;;;;;31.93;47.36;100906.94;5072661;27;66024;-41
2023/03/16 06:56:08;;;;;;;;;;;;;;;31.96;47.31;100894.81;5058856;27;69026;-49
2023/03/16 06:58:41;;;;;;;;;;;;;;;31.98;47.45;100888.09;5050784;28;66793;-41
2023/03/16 07:01:12;;;;;;;;;;;;;;;32.02;46.98;100885.75;5052762;28;70655;-40
2023/03/16 07:03:42;;;;;;;;;;;;;;;32.05;47.08;100877.16;5052934;28;66702;-41
2023/03/16 07:06:24;;;;;;;;;;;;;;;32.09;46.95;100878.34;5057735;28;70734;-40
2023/03/16 07:08:55;;;;;;;;;;;;;;;32.13;46.90;100873.31;5049942;28;67061;-40
2023/03/16 07:11:28;;;;;;;;;;;;;;;32.17;47.08;100869.06;5049602;28;70028;-39
2023/03/16 07:13:59;;;;;;;;;;;;;;;32.20;46.75;100864.00;5043716;28;65749;-42
2023/03/16 07:16:32;;;;;;;;;;;;;;;32.25;46.80;100860.59;5054858;27;69917;-40
2023/03/16 07:19:05;;;;;;;;;;;;;;;32.28;46.74;100858.25;5056282;28;66633;-40
2023/03/16 07:21:39;;;;;;;;;;;;;;;32.31;46.73;100850.69;5053274;27;69441;-40
2023/03/16 07:24:14;;;;;;;;;;;;;;;32.35;46.50;100858.16;5045695;27;66187;-40
2023/03/16 07:26:46;;;;;;;;;;;;;;;32.37;46.52;100853.31;5055185;27;70704;-40
2023/03/16 07:29:25;;;;;;;;;;;;;;;32.41;46.48;100853.69;5075178;27;65713;-40
2023/03/16 07:31:55;;;;;;;;;;;;;;;32.43;46.49;100843.41;5051719;27;69919;-40
2023/03/16 07:34:33;;;;;;;;;;;;;;;32.47;46.38;100855.50;5045083;28;66078;-40
2023/03/16 07:37:03;;;;;;;;;;;;;;;32.49;46.20;100845.25;5040758;28;70839;-41
2023/03/16 07:39:34;;;;;;;;;;;;;;;32.54;46.05;100847.25;5045841;27;66587;-40
2023/03/16 07:42:13;;;;;;;;;;;;;;;32.57;46.13;100841.34;5048545;28;70647;-40
2023/03/16 07:45:04;;;;;;;;;;;;;;;32.60;45.94;100836.31;5053588;27;66385;-40
2023/03/16 07:47:34;;;;;;;;;;;;;;;32.63;46.01;100835.84;5054623;28;70897;-40
2023/03/16 07:50:15;;;;;;;;;;;;;;;32.67;46.01;100842.44;5052138;28;66336;-40
2023/03/16 07:52:46;;;;;;;;;;;;;;;32.71;46.04;100842.81;5082390;27;70510;-40
2023/03/16 07:55:16;;;;;;;;;;;;;;;32.74;45.88;100830.66;5049231;28;66969;-41
2023/03/16 07:57:48;;;;;;;;;;;;;;;32.77;45.86;100836.44;5071958;27;70026;-40
2023/03/16 08:00:25;;;;;;;;;;;;;;;32.82;45.72;100833.00;5053237;27;65762;-41
2023/03/16 08:02:56;;;;;;;;;;;;;;;32.84;45.81;100837.16;5053986;28;71249;-41
2023/03/16 08:05:26;;;;;;;;;;;;;;;32.86;45.64;100829.59;5084783;27;65794;-40
2023/03/16 08:08:00;;;;;;;;;;;;;;;32.45;45.91;100766.09;5044444;28;70504;-39
2023/03/16 08:10:32;;;;;;;;;;;;;;;32.90;45.80;100828.09;5043482;28;66291;-39
2023/03/16 08:13:12;;;;;;;;;;;;;;;32.94;45.48;100826.53;5051386;28;70388;-43
2023/03/16 08:15:49;;;;;;;;;;;;;;;32.96;45.61;100822.75;5084607;27;66216;-40
2023/03/16 08:18:25;;;;;;;;;;;;;;;33.00;45.89;100823.97;5056388;28;70093;-40
2023/03/16 08:20:56;;;;;;;;;;;;;;;33.03;45.64;100821.59;5055462;28;66346;-41
2023/03/16 08:23:28;;;;;;;;;;;;;;;33.06;45.52;100823.03;5046674;28;69855;-39
2023/03/16 08:25:58;;;;;;;;;;;;;;;33.10;45.38;100826.94;5033253;28;65335;-40
2023/03/16 08:28:29;;;;;;;;;;;;;;;33.15;45.42;100832.47;5040323;28;70651;-40
2023/03/16 08:31:02;;;;;;;;;;;;;;;33.17;45.40;100824.91;5082255;27;66010;-40
2023/03/16 08:33:56;;;;;;;;;;;;;;;33.20;45.22;100824.44;5049609;28;70115;-40
2023/03/16 08:36:29;;;;;;;;;;;;;;;33.20;44.99;100816.28;5054592;28;67103;-41
2023/03/16 08:39:01;;;;;;;;;;;;;;;33.22;45.21;100822.31;5064666;27;70505;-41
2023/03/16 08:41:44;;;;;;;;;;;;;;;33.26;45.19;100833.53;5047607;28;65848;-39
2023/03/16 08:44:27;;;;;;;;;;;;;;;33.28;44.94;100826.78;5052822;28;70413;-40
2023/03/16 08:46:57;;;;;;;;;;;;;;;33.31;45.13;100831.75;5081612;27;66228;-40
2023/03/16 08:49:27;;;;;;;;;;;;;;;33.34;44.88;100828.53;5051743;27;69550;-41
2023/03/16 08:52:09;;;;;;;;;;;;;;;33.37;45.07;100830.78;5052061;28;67179;-40
2023/03/16 08:54:40;;;;;;;;;;;;;;;33.40;44.89;100839.53;5047637;27;70633;-40
2023/03/16 08:57:23;;;;;;;;;;;;;;;33.45;44.88;100839.66;5047923;28;66062;-40
2023/03/16 08:59:54;;;;;;;;;;;;;;;33.49;44.87;100838.09;5051429;27;70703;-39
2023/03/16 09:02:24;;;;;;;;;;;;;;;33.52;44.67;100834.91;5046422;28;66168;-40
2023/03/16 09:04:55;;;;;;;;;;;;;;;33.55;44.49;100832.56;5041714;28;70415;-41
2023/03/16 09:07:27;;;;;;;;;;;;;;;33.58;44.92;100840.25;5049071;28;65644;-41
2023/03/16 09:09:57;;;;;;;;;;;;;;;33.38;44.67;100799.00;5053021;28;70650;-42
2023/03/16 09:12:27;;;;;;;;;;;;;;;33.65;44.51;100826.50;5056965;28;66959;-40
2023/03/16 09:14:57;;;;;;;;;;;;;;;33.70;44.77;100833.94;5049044;28;70082;-40
2023/03/16 09:17:27;;;;;;;;;;;;;;;33.73;44.69;100828.84;5051013;28;65747;-42
2023/03/16 09:19:58;;;;;;;;;;;;;;;33.77;44.53;100829.22;5051765;27;70468;-41
2023/03/16 09:22:47;;;;;;;;;;;;;;;33.46;45.28;100835.84;5047826;28;66615;-41
2023/03/16 09:25:17;;;;;;;;;;;;;;;33.28;45.77;100831.41;5080748;27;70161;-43
2023/03/16 09:27:47;;;;;;;;;;;;;;;33.17;46.34;100834.97;5045336;28;66702;-41
2023/03/16 09:30:18;;;;;;;;;;;;;;;33.10;46.33;100835.91;5041998;28;70507;-41
2023/03/16 09:32:49;;;;;;;;;;;;;;;33.06;46.79;100833.88;5045590;27;66741;-41
2023/03/16 09:35:19;;;;;;;;;;;;;;;33.02;46.72;100835.44;5052435;28;68821;-42
2023/03/16 09:37:51;;;;;;;;;;;;;;;32.95;46.88;100838.22;5056699;28;65521;-42
2023/03/16 09:40:36;;;;;;;;;;;;;;;32.91;47.13;100843.31;5047024;28;69986;-40
2023/03/16 09:43:25;;;;;;;;;;;;;;;32.89;47.16;100850.84;5052854;28;66714;-41
2023/03/16 09:46:05;;;;;;;;;;;;;;;32.88;47.52;100846.50;5054362;28;70542;-43
2023/03/16 09:48:37;;;;;;;;;;;;;;;32.86;47.32;100851.34;5045467;27;66276;-43
2023/03/16 09:51:13;;;;;;;;;;;;;;;32.84;47.32;100845.28;5045544;28;69000;-43
2023/03/16 09:53:46;;;;;;;;;;;;;;;32.84;47.39;100853.44;5044927;28;67045;-41
2023/03/16 09:56:21;;;;;;;;;;;;;;;32.85;47.32;100860.56;5041025;28;70847;-41
2023/03/16 09:58:51;;;;;;;;;;;;;;;32.85;47.39;100857.84;5045646;28;66823;-41
2023/03/16 10:01:21;;;;;;;;;;;;;;;32.83;47.51;100854.53;5045667;28;70407;-41
2023/03/16 10:03:59;;;;;;;;;;;;;;;32.84;47.48;100858.88;5060708;27;66266;-41
2023/03/16 10:06:30;;;;;;;;;;;;;;;32.86;47.54;100859.47;5046737;28;69454;-40
2023/03/16 10:09:15;;;;;;;;;;;;;;;32.83;48.23;100862.66;5048789;27;67434;-43
2023/03/16 10:11:49;;;;;;;;;;;;;;;32.87;48.26;100869.28;5046164;27;70305;-42
2023/03/16 10:14:24;;;;;;;;;;;;;;;32.88;48.65;100870.94;5043232;28;65670;-41
2023/03/16 10:17:04;;;;;;;;;;;;;;;32.89;49.07;100878.03;5043304;28;70188;-42
2023/03/16 10:19:40;;;;;;;;;;;;;;;32.91;48.79;100875.91;5046483;28;66223;-41
2023/03/16 10:22:16;;;;;;;;;;;;;;;32.91;47.89;100875.09;5049452;28;69273;-43
2023/03/16 10:25:01;;;;;;;;;;;;;;;32.90;46.18;100879.72;5051184;28;65452;-43
2023/03/16 10:27:33;;;;;;;;;;;;;;;32.87;46.04;100879.31;5045706;28;70752;-43
2023/03/16 10:30:07;;;;;;;;;;;;;;;32.87;45.60;100876.59;5078562;27;65429;-42
2023/03/16 10:32:37;;;;;;;;;;;;;;;32.85;45.51;100879.56;5051051;27;70545;-41
2023/03/16 10:35:19;;;;;;;;;;;;;;;32.85;45.75;100876.84;5046826;28;66066;-40
2023/03/16 10:37:50;;;;;;;;;;;;;;;32.80;45.55;100884.88;5031734;28;70023;-42
2023/03/16 10:40:21;;;;;;;;;;;;;;;32.80;46.16;100879.44;5051319;28;66537;-42
2023/03/16 10:42:52;;;;;;;;;;;;;;;32.81;46.64;100885.69;5045576;27;70347;-43
2023/03/16 10:45:30;;;;;;;;;;;;;;;32.83;47.22;100887.13;5044853;27;66520;-41
2023/03/16 10:48:14;;;;;;;;;;;;;;;32.91;48.36;100885.97;5045713;28;69196;-43
2023/03/16 10:50:49;;;;;;;;;;;;;;;33.15;47.88;100889.53;5053975;28;66548;-42
2023/03/16 10:53:24;;;;;;;;;;;;;;;33.28;48.38;100892.03;5040991;28;70152;-43
2023/03/16 10:56:01;;;;;;;;;;;;;;;33.38;47.81;100892.28;5037673;28;65649;-42
2023/03/16 10:58:39;;;;;;;;;;;;;;;33.46;47.15;100898.41;5043618;28;70683;-42
2023/03/16 11:01:17;;;;;;;;;;;;;;;33.51;46.58;100893.91;5053040;28;65704;-43
2023/03/16 11:03:50;;;;;;;;;;;;;;;33.55;46.61;100897.03;5054383;28;70315;-42
2023/03/16 11:06:23;;;;;;;;;;;;;;;33.58;46.32;100907.44;5084924;27;66117;-42
2023/03/16 11:08:54;;;;;;;;;;;;;;;33.57;46.16;100908.47;5048089;28;69975;-43
2023/03/16 11:11:28;;;;;;;;;;;;;;;33.58;45.84;100918.31;5049712;28;66602;-42
2023/03/16 11:14:00;;;;;;;;;;;;;;;33.58;45.61;100910.16;5037387;28;69301;-42
2023/03/16 11:16:38;;;;;;;;;;;;;;;33.58;45.56;100912.88;5040961;28;66036;-43
2023/03/16 11:19:19;;;;;;;;;;;;;;;33.58;45.36;100907.44;5050496;28;69730;-41
2023/03/16 11:21:58;;;;;;;;;;;;;;;33.58;45.38;100915.59;5044241;28;66309;-42
2023/03/16 11:24:28;;;;;;;;;;;;;;;33.54;45.24;100920.69;5050137;28;70317;-42
2023/03/16 11:27:00;;;;;;;;;;;;;;;33.54;45.21;100922.53;5046272;28;65435;-41
2023/03/16 11:29:36;;;;;;;;;;;;;;;33.53;45.35;100926.34;5053665;28;69879;-41
2023/03/16 11:32:19;;;;;;;;;;;;;;;33.53;45.65;100931.78;5051417;27;66732;-41
2023/03/16 11:34:49;;;;;;;;;;;;;;;33.50;45.61;100938.50;5049163;28;69929;-42
2023/03/16 11:37:28;;;;;;;;;;;;;;;33.48;46.09;100939.78;5041873;28;66133;-42
2023/03/16 11:40:14;;;;;;;;;;;;;;;33.48;45.88;100946.03;5051136;28;70530;-42
2023/03/16 11:42:47;;;;;;;;;;;;;;;33.44;45.99;100944.06;5048756;28;67118;-42
2023/03/16 11:45:38;;;;;;;;;;;;;;;33.43;46.38;100947.81;5051232;28;70104;-42
2023/03/16 11:48:19;;;;;;;;;;;;;;;33.39;46.42;100944.75;5042975;28;66692;-42
2023/03/16 11:50:58;;;;;;;;;;;;;;;33.36;46.38;100954.22;5047504;27;69594;-41
2023/03/16 11:54:06;;;;;;;;;;;;;;;33.34;46.44;100961.75;5046764;28;66486;-42
2023/03/16 11:56:49;;;;;;;;;;;;;;;33.30;46.70;100966.03;5050764;28;70652;-42
2023/03/16 11:59:33;;;;;;;;;;;;;;;33.29;46.68;100969.81;5053134;28;66255;-41
2023/03/16 12:02:24;;;;;;;;;;;;;;;33.26;47.13;100973.00;5043676;28;70098;-42
2023/03/16 12:04:58;;;;;;;;;;;;;;;33.24;46.85;100988.72;5039804;28;66099;-42
2023/03/16 12:07:46;;;;;;;;;;;;;;;33.22;47.32;100990.84;5044368;28;70010;-42
2023/03/16 12:10:24;;;;;;;;;;;;;;;33.18;47.44;100992.34;5081116;27;66270;-42
2023/03/16 12:12:54;;;;;;;;;;;;;;;33.15;47.59;100990.09;5045701;28;70163;-41
2023/03/16 12:15:43;;;;;;;;;;;;;;;33.13;47.60;101003.13;5073293;27;66869;-41
2023/03/16 12:18:20;;;;;;;;;;;;;;;33.09;47.48;101005.47;5050847;28;69836;-43
2023/03/16 12:20:50;;;;;;;;;;;;;;;33.07;47.92;101010.31;5053325;28;66675;-42
2023/03/16 12:23:28;;;;;;;;;;;;;;;33.07;47.62;101014.91;5052843;28;69645;-43
2023/03/16 12:25:59;;;;;;;;;;;;;;;33.06;47.87;101024.13;5045321;28;66254;-42
2023/03/16 12:28:32;;;;;;;;;;;;;;;33.03;48.13;101022.69;5051920;28;69828;-42
2023/03/16 12:31:12;;;;;;;;;;;;;;;33.00;48.29;101034.03;5055494;27;65643;-43
2023/03/16 12:34:01;;;;;;;;;;;;;;;32.98;48.27;101038.00;5053080;28;69806;-44
2023/03/16 12:36:38;;;;;;;;;;;;;;;32.93;48.31;101042.25;5081372;27;65822;-43
2023/03/16 12:39:32;;;;;;;;;;;;;;;32.91;48.29;101047.09;5043232;28;70530;-44
2023/03/16 12:42:15;;;;;;;;;;;;;;;32.69;50.69;101046.75;5042534;28;66317;-42
2023/03/16 12:44:52;;;;;;;;;;;;;;;32.47;52.23;101051.84;5051035;28;70923;-44
2023/03/16 12:47:23;;;;;;;;;;;;;;;32.43;52.86;101057.91;5052523;28;66805;-42
2023/03/16 12:49:55;;;;;;;;;;;;;;;32.52;52.66;101063.91;5053372;28;70365;-42
2023/03/16 12:52:25;;;;;;;;;;;;;;;32.32;53.32;101061.38;5039746;28;66088;-43
2023/03/16 12:55:07;;;;;;;;;;;;;;;32.19;53.75;101068.63;5036846;28;70587;-41
2023/03/16 12:57:38;;;;;;;;;;;;;;;32.10;55.13;101080.81;5055732;27;66540;-41
2023/03/16 13:00:10;;;;;;;;;;;;;;;32.05;55.98;101078.78;5056896;27;70701;-42
2023/03/16 13:02:48;;;;;;;;;;;;;;;32.04;56.58;101079.84;5052156;28;65540;-41
2023/03/16 13:05:28;;;;;;;;;;;;;;;32.04;57.05;101098.00;5043417;27;70561;-41
2023/03/16 13:08:10;;;;;;;;;;;;;;;32.01;57.42;101104.72;5050022;28;66919;-42
2023/03/16 13:10:42;;;;;;;;;;;;;;;31.97;57.69;101098.03;5058168;28;69470;-42
2023/03/16 13:13:17;;;;;;;;;;;;;;;31.97;57.09;101105.38;5053063;28;66162;-41